sensor_id;sensor_type;location;lat;lon;timestamp;P1;durP1;ratioP1;P2;durP2;ratioP2
23728;SDS011;12045;60.214;24.724;2022-11-20T00:01:17;1.63;;;1.20;;
23728;SDS011;12045;60.214;24.724;2022-11-20T00:03:46;1.53;;;1.20;;
23728;SDS011;12045;60.214;24.724;2022-11-20T00:06:15;1.80;;;1.27;;
23728;SDS011;12045;60.214;24.724;2022-11-20T00:08:45;1.47;;;1.27;;
23728;SDS011;12045;60.214;24.724;2022-11-20T00:11:14;2.47;;;1.20;;
23728;SDS011;12045;60.214;24.724;2022-11-20T00:13:47;2.80;;;1.10;;
23728;SDS011;12045;60.214;24.724;2022-11-20T00:16:18;1.93;;;1.07;;
23728;SDS011;12045;60.214;24.724;2022-11-20T00:18:47;1.23;;;1.13;;
23728;SDS011;12045;60.214;24.724;2022-11-20T00:21:15;1.83;;;0.97;;
23728;SDS011;12045;60.214;24.724;2022-11-20T00:23:45;1.10;;;1.00;;
23728;SDS011;12045;60.214;24.724;2022-11-20T00:26:13;1.30;;;1.20;;
23728;SDS011;12045;60.214;24.724;2022-11-20T00:28:43;3.10;;;1.40;;
23728;SDS011;12045;60.214;24.724;2022-11-20T00:31:16;1.53;;;1.07;;
23728;SDS011;12045;60.214;24.724;2022-11-20T00:33:44;2.47;;;1.30;;
23728;SDS011;12045;60.214;24.724;2022-11-20T00:36:13;1.60;;;0.90;;
23728;SDS011;12045;60.214;24.724;2022-11-20T00:38:42;1.60;;;1.30;;
23728;SDS011;12045;60.214;24.724;2022-11-20T00:41:10;3.17;;;1.40;;
23728;SDS011;12045;60.214;24.724;2022-11-20T00:43:40;1.80;;;1.37;;
23728;SDS011;12045;60.214;24.724;2022-11-20T00:46:19;1.93;;;1.20;;
23728;SDS011;12045;60.214;24.724;2022-11-20T00:48:48;3.23;;;1.50;;
23728;SDS011;12045;60.214;24.724;2022-11-20T00:51:16;2.03;;;1.60;;
23728;SDS011;12045;60.214;24.724;2022-11-20T00:53:46;2.30;;;1.50;;
23728;SDS011;12045;60.214;24.724;2022-11-20T00:56:14;1.83;;;1.40;;
23728;SDS011;12045;60.214;24.724;2022-11-20T00:58:44;1.47;;;1.20;;
23728;SDS011;12045;60.214;24.724;2022-11-20T01:01:13;2.37;;;1.37;;
23728;SDS011;12045;60.214;24.724;2022-11-20T01:03:44;2.30;;;1.33;;
23728;SDS011;12045;60.214;24.724;2022-11-20T01:06:14;1.50;;;1.20;;
23728;SDS011;12045;60.214;24.724;2022-11-20T01:08:44;1.67;;;1.10;;
23728;SDS011;12045;60.214;24.724;2022-11-20T01:11:16;1.90;;;1.20;;
23728;SDS011;12045;60.214;24.724;2022-11-20T01:13:46;2.03;;;1.30;;
23728;SDS011;12045;60.214;24.724;2022-11-20T01:16:16;1.30;;;1.20;;
23728;SDS011;12045;60.214;24.724;2022-11-20T01:18:47;1.87;;;1.23;;
23728;SDS011;12045;60.214;24.724;2022-11-20T01:21:19;2.00;;;1.40;;
23728;SDS011;12045;60.214;24.724;2022-11-20T01:23:56;2.33;;;1.30;;
23728;SDS011;12045;60.214;24.724;2022-11-20T01:26:25;2.23;;;1.13;;
23728;SDS011;12045;60.214;24.724;2022-11-20T01:28:55;1.50;;;0.97;;
23728;SDS011;12045;60.214;24.724;2022-11-20T01:31:24;2.03;;;1.53;;
23728;SDS011;12045;60.214;24.724;2022-11-20T01:33:55;3.07;;;1.40;;
23728;SDS011;12045;60.214;24.724;2022-11-20T01:36:25;1.17;;;1.07;;
23728;SDS011;12045;60.214;24.724;2022-11-20T01:38:54;2.00;;;1.60;;
23728;SDS011;12045;60.214;24.724;2022-11-20T01:41:24;1.80;;;1.40;;
23728;SDS011;12045;60.214;24.724;2022-11-20T01:44:13;1.87;;;1.40;;
23728;SDS011;12045;60.214;24.724;2022-11-20T01:49:26;2.30;;;1.57;;
23728;SDS011;12045;60.214;24.724;2022-11-20T01:52:07;1.77;;;1.20;;
23728;SDS011;12045;60.214;24.724;2022-11-20T01:54:56;0.93;;;0.83;;
23728;SDS011;12045;60.214;24.724;2022-11-20T01:57:32;1.57;;;1.10;;
23728;SDS011;12045;60.214;24.724;2022-11-20T02:00:08;1.77;;;1.40;;
23728;SDS011;12045;60.214;24.724;2022-11-20T02:02:39;1.67;;;1.17;;
23728;SDS011;12045;60.214;24.724;2022-11-20T02:07:48;2.10;;;1.30;;
23728;SDS011;12045;60.214;24.724;2022-11-20T02:10:17;1.97;;;1.30;;
23728;SDS011;12045;60.214;24.724;2022-11-20T02:12:45;1.63;;;1.00;;
23728;SDS011;12045;60.214;24.724;2022-11-20T02:15:32;1.80;;;1.40;;
23728;SDS011;12045;60.214;24.724;2022-11-20T02:18:00;3.20;;;1.10;;
23728;SDS011;12045;60.214;24.724;2022-11-20T02:20:28;1.87;;;1.30;;
23728;SDS011;12045;60.214;24.724;2022-11-20T02:22:57;1.53;;;1.10;;
23728;SDS011;12045;60.214;24.724;2022-11-20T02:25:33;1.50;;;1.20;;
23728;SDS011;12045;60.214;24.724;2022-11-20T02:28:02;1.40;;;0.90;;
23728;SDS011;12045;60.214;24.724;2022-11-20T02:30:30;1.70;;;1.10;;
23728;SDS011;12045;60.214;24.724;2022-11-20T02:32:58;2.30;;;0.97;;
23728;SDS011;12045;60.214;24.724;2022-11-20T02:37:56;2.10;;;1.50;;
23728;SDS011;12045;60.214;24.724;2022-11-20T02:40:28;1.30;;;1.20;;
23728;SDS011;12045;60.214;24.724;2022-11-20T02:42:56;1.83;;;1.33;;
23728;SDS011;12045;60.214;24.724;2022-11-20T02:45:24;2.10;;;1.20;;
23728;SDS011;12045;60.214;24.724;2022-11-20T02:47:52;1.43;;;1.07;;
23728;SDS011;12045;60.214;24.724;2022-11-20T02:50:20;1.00;;;0.90;;
23728;SDS011;12045;60.214;24.724;2022-11-20T02:52:47;1.17;;;0.97;;
23728;SDS011;12045;60.214;24.724;2022-11-20T02:55:15;1.70;;;1.10;;
23728;SDS011;12045;60.214;24.724;2022-11-20T02:57:43;1.20;;;1.10;;
23728;SDS011;12045;60.214;24.724;2022-11-20T03:00:10;3.23;;;1.10;;
23728;SDS011;12045;60.214;24.724;2022-11-20T03:02:38;1.07;;;0.93;;
23728;SDS011;12045;60.214;24.724;2022-11-20T03:05:06;3.03;;;1.37;;
23728;SDS011;12045;60.214;24.724;2022-11-20T03:07:33;2.37;;;1.47;;
23728;SDS011;12045;60.214;24.724;2022-11-20T03:10:01;1.37;;;1.10;;
23728;SDS011;12045;60.214;24.724;2022-11-20T03:12:28;1.57;;;1.30;;
23728;SDS011;12045;60.214;24.724;2022-11-20T03:14:55;1.20;;;1.07;;
23728;SDS011;12045;60.214;24.724;2022-11-20T03:17:23;2.30;;;1.10;;
23728;SDS011;12045;60.214;24.724;2022-11-20T03:19:50;2.33;;;1.20;;
23728;SDS011;12045;60.214;24.724;2022-11-20T03:22:18;2.30;;;1.37;;
23728;SDS011;12045;60.214;24.724;2022-11-20T03:24:45;1.67;;;1.20;;
23728;SDS011;12045;60.214;24.724;2022-11-20T03:27:13;1.13;;;1.03;;
23728;SDS011;12045;60.214;24.724;2022-11-20T03:29:40;1.20;;;1.10;;
23728;SDS011;12045;60.214;24.724;2022-11-20T03:32:08;1.70;;;1.10;;
23728;SDS011;12045;60.214;24.724;2022-11-20T03:34:35;1.37;;;1.23;;
23728;SDS011;12045;60.214;24.724;2022-11-20T03:37:03;4.03;;;1.40;;
23728;SDS011;12045;60.214;24.724;2022-11-20T03:39:30;1.30;;;1.20;;
23728;SDS011;12045;60.214;24.724;2022-11-20T03:41:57;1.07;;;1.00;;
23728;SDS011;12045;60.214;24.724;2022-11-20T03:44:25;1.63;;;1.27;;
23728;SDS011;12045;60.214;24.724;2022-11-20T03:46:52;1.67;;;1.47;;
23728;SDS011;12045;60.214;24.724;2022-11-20T03:49:20;1.70;;;1.27;;
23728;SDS011;12045;60.214;24.724;2022-11-20T03:51:47;0.53;;;0.53;;
23728;SDS011;12045;60.214;24.724;2022-11-20T03:54:15;1.73;;;1.20;;
23728;SDS011;12045;60.214;24.724;2022-11-20T03:56:42;2.53;;;1.20;;
23728;SDS011;12045;60.214;24.724;2022-11-20T03:59:10;1.47;;;1.17;;
23728;SDS011;12045;60.214;24.724;2022-11-20T04:01:38;1.07;;;1.00;;
23728;SDS011;12045;60.214;24.724;2022-11-20T04:04:06;1.40;;;1.20;;
23728;SDS011;12045;60.214;24.724;2022-11-20T04:06:35;2.30;;;1.30;;
23728;SDS011;12045;60.214;24.724;2022-11-20T04:09:04;1.63;;;1.47;;
23728;SDS011;12045;60.214;24.724;2022-11-20T04:11:34;0.90;;;0.90;;
23728;SDS011;12045;60.214;24.724;2022-11-20T04:14:03;1.83;;;1.20;;
23728;SDS011;12045;60.214;24.724;2022-11-20T04:16:33;2.70;;;1.10;;
23728;SDS011;12045;60.214;24.724;2022-11-20T04:19:03;1.57;;;1.20;;
23728;SDS011;12045;60.214;24.724;2022-11-20T04:21:32;1.47;;;1.23;;
23728;SDS011;12045;60.214;24.724;2022-11-20T04:24:00;1.57;;;1.43;;
23728;SDS011;12045;60.214;24.724;2022-11-20T04:26:28;1.77;;;1.20;;
23728;SDS011;12045;60.214;24.724;2022-11-20T04:28:57;1.33;;;1.23;;
23728;SDS011;12045;60.214;24.724;2022-11-20T04:31:25;1.63;;;1.20;;
23728;SDS011;12045;60.214;24.724;2022-11-20T04:33:55;1.33;;;0.90;;
23728;SDS011;12045;60.214;24.724;2022-11-20T04:36:26;0.97;;;0.87;;
23728;SDS011;12045;60.214;24.724;2022-11-20T04:38:55;1.90;;;1.50;;
23728;SDS011;12045;60.214;24.724;2022-11-20T04:41:28;1.93;;;1.57;;
23728;SDS011;12045;60.214;24.724;2022-11-20T04:43:58;2.23;;;1.13;;
23728;SDS011;12045;60.214;24.724;2022-11-20T04:46:31;1.10;;;1.00;;
23728;SDS011;12045;60.214;24.724;2022-11-20T04:49:09;1.50;;;1.40;;
23728;SDS011;12045;60.214;24.724;2022-11-20T04:51:38;0.80;;;0.80;;
23728;SDS011;12045;60.214;24.724;2022-11-20T04:54:06;0.90;;;0.90;;
23728;SDS011;12045;60.214;24.724;2022-11-20T04:56:33;3.47;;;1.60;;
23728;SDS011;12045;60.214;24.724;2022-11-20T04:59:01;2.03;;;1.70;;
23728;SDS011;12045;60.214;24.724;2022-11-20T05:01:29;2.37;;;1.40;;
23728;SDS011;12045;60.214;24.724;2022-11-20T05:03:57;1.67;;;1.30;;
23728;SDS011;12045;60.214;24.724;2022-11-20T05:06:24;1.40;;;1.20;;
23728;SDS011;12045;60.214;24.724;2022-11-20T05:08:52;2.03;;;1.33;;
23728;SDS011;12045;60.214;24.724;2022-11-20T05:11:20;5.27;;;1.13;;
23728;SDS011;12045;60.214;24.724;2022-11-20T05:13:49;2.10;;;1.30;;
23728;SDS011;12045;60.214;24.724;2022-11-20T05:16:18;1.70;;;1.30;;
23728;SDS011;12045;60.214;24.724;2022-11-20T05:18:50;2.57;;;1.50;;
23728;SDS011;12045;60.214;24.724;2022-11-20T05:21:19;1.90;;;1.20;;
23728;SDS011;12045;60.214;24.724;2022-11-20T05:23:47;2.00;;;1.43;;
23728;SDS011;12045;60.214;24.724;2022-11-20T05:26:18;2.37;;;1.47;;
23728;SDS011;12045;60.214;24.724;2022-11-20T05:28:50;2.90;;;1.30;;
23728;SDS011;12045;60.214;24.724;2022-11-20T05:31:19;1.80;;;1.70;;
23728;SDS011;12045;60.214;24.724;2022-11-20T05:33:53;1.00;;;0.90;;
23728;SDS011;12045;60.214;24.724;2022-11-20T05:36:22;2.23;;;1.70;;
23728;SDS011;12045;60.214;24.724;2022-11-20T05:38:50;2.30;;;1.80;;
23728;SDS011;12045;60.214;24.724;2022-11-20T05:41:24;1.60;;;1.20;;
23728;SDS011;12045;60.214;24.724;2022-11-20T05:43:51;4.50;;;1.60;;
23728;SDS011;12045;60.214;24.724;2022-11-20T05:46:19;3.53;;;1.47;;
23728;SDS011;12045;60.214;24.724;2022-11-20T05:48:54;2.63;;;1.80;;
23728;SDS011;12045;60.214;24.724;2022-11-20T05:51:23;1.80;;;1.27;;
23728;SDS011;12045;60.214;24.724;2022-11-20T05:53:51;2.00;;;1.67;;
23728;SDS011;12045;60.214;24.724;2022-11-20T05:56:19;1.60;;;1.50;;
23728;SDS011;12045;60.214;24.724;2022-11-20T05:58:48;2.50;;;1.80;;
23728;SDS011;12045;60.214;24.724;2022-11-20T06:01:20;2.10;;;1.57;;
23728;SDS011;12045;60.214;24.724;2022-11-20T06:03:49;2.47;;;2.20;;
23728;SDS011;12045;60.214;24.724;2022-11-20T06:06:18;3.27;;;2.10;;
23728;SDS011;12045;60.214;24.724;2022-11-20T06:08:46;2.37;;;1.80;;
23728;SDS011;12045;60.214;24.724;2022-11-20T06:11:14;2.40;;;1.80;;
23728;SDS011;12045;60.214;24.724;2022-11-20T06:13:43;2.50;;;2.00;;
23728;SDS011;12045;60.214;24.724;2022-11-20T06:16:11;3.10;;;2.17;;
23728;SDS011;12045;60.214;24.724;2022-11-20T06:18:40;3.20;;;2.00;;
23728;SDS011;12045;60.214;24.724;2022-11-20T06:21:08;3.37;;;2.30;;
23728;SDS011;12045;60.214;24.724;2022-11-20T06:23:43;2.43;;;1.80;;
23728;SDS011;12045;60.214;24.724;2022-11-20T06:26:12;2.50;;;2.00;;
23728;SDS011;12045;60.214;24.724;2022-11-20T06:28:42;3.03;;;1.60;;
23728;SDS011;12045;60.214;24.724;2022-11-20T06:31:11;4.00;;;2.00;;
23728;SDS011;12045;60.214;24.724;2022-11-20T06:33:41;3.30;;;2.17;;
23728;SDS011;12045;60.214;24.724;2022-11-20T06:36:10;3.13;;;2.30;;
23728;SDS011;12045;60.214;24.724;2022-11-20T06:38:39;3.30;;;2.53;;
23728;SDS011;12045;60.214;24.724;2022-11-20T06:41:10;3.03;;;2.17;;
23728;SDS011;12045;60.214;24.724;2022-11-20T06:43:42;3.40;;;2.50;;
23728;SDS011;12045;60.214;24.724;2022-11-20T06:46:10;3.47;;;2.47;;
23728;SDS011;12045;60.214;24.724;2022-11-20T06:48:39;2.13;;;1.63;;
23728;SDS011;12045;60.214;24.724;2022-11-20T06:51:07;3.07;;;2.27;;
23728;SDS011;12045;60.214;24.724;2022-11-20T06:53:35;2.60;;;2.10;;
23728;SDS011;12045;60.214;24.724;2022-11-20T06:56:03;2.90;;;2.17;;
23728;SDS011;12045;60.214;24.724;2022-11-20T06:58:32;2.23;;;1.80;;
23728;SDS011;12045;60.214;24.724;2022-11-20T07:01:07;4.33;;;2.27;;
23728;SDS011;12045;60.214;24.724;2022-11-20T07:03:37;4.07;;;2.20;;
23728;SDS011;12045;60.214;24.724;2022-11-20T07:06:05;3.87;;;2.60;;
23728;SDS011;12045;60.214;24.724;2022-11-20T07:08:34;2.77;;;2.10;;
23728;SDS011;12045;60.214;24.724;2022-11-20T07:11:03;3.13;;;2.37;;
23728;SDS011;12045;60.214;24.724;2022-11-20T07:13:32;3.83;;;2.40;;
23728;SDS011;12045;60.214;24.724;2022-11-20T07:16:01;2.93;;;2.10;;
23728;SDS011;12045;60.214;24.724;2022-11-20T07:18:30;3.63;;;2.60;;
23728;SDS011;12045;60.214;24.724;2022-11-20T07:21:05;2.90;;;2.00;;
23728;SDS011;12045;60.214;24.724;2022-11-20T07:23:35;3.43;;;2.40;;
23728;SDS011;12045;60.214;24.724;2022-11-20T07:26:07;2.97;;;2.27;;
23728;SDS011;12045;60.214;24.724;2022-11-20T07:28:36;4.30;;;2.27;;
23728;SDS011;12045;60.214;24.724;2022-11-20T07:31:04;3.57;;;1.77;;
23728;SDS011;12045;60.214;24.724;2022-11-20T07:33:43;4.17;;;2.27;;
23728;SDS011;12045;60.214;24.724;2022-11-20T07:36:10;5.60;;;2.67;;
23728;SDS011;12045;60.214;24.724;2022-11-20T07:38:38;4.93;;;2.57;;
23728;SDS011;12045;60.214;24.724;2022-11-20T07:41:05;3.00;;;2.10;;
23728;SDS011;12045;60.214;24.724;2022-11-20T07:43:33;3.77;;;2.20;;
23728;SDS011;12045;60.214;24.724;2022-11-20T07:46:06;3.23;;;2.00;;
23728;SDS011;12045;60.214;24.724;2022-11-20T07:48:34;4.57;;;1.90;;
23728;SDS011;12045;60.214;24.724;2022-11-20T07:51:01;2.80;;;1.67;;
23728;SDS011;12045;60.214;24.724;2022-11-20T07:53:29;2.83;;;1.97;;
23728;SDS011;12045;60.214;24.724;2022-11-20T07:56:00;2.53;;;1.77;;
23728;SDS011;12045;60.214;24.724;2022-11-20T07:58:28;4.30;;;2.00;;
23728;SDS011;12045;60.214;24.724;2022-11-20T08:00:56;1.90;;;1.67;;
23728;SDS011;12045;60.214;24.724;2022-11-20T08:03:24;4.00;;;1.60;;
23728;SDS011;12045;60.214;24.724;2022-11-20T08:05:51;2.60;;;1.90;;
23728;SDS011;12045;60.214;24.724;2022-11-20T08:08:19;2.70;;;1.73;;
23728;SDS011;12045;60.214;24.724;2022-11-20T08:10:48;5.10;;;1.87;;
23728;SDS011;12045;60.214;24.724;2022-11-20T08:13:15;6.27;;;2.33;;
23728;SDS011;12045;60.214;24.724;2022-11-20T08:16:01;3.80;;;1.93;;
23728;SDS011;12045;60.214;24.724;2022-11-20T08:18:29;3.10;;;1.50;;
23728;SDS011;12045;60.214;24.724;2022-11-20T08:21:01;6.07;;;1.63;;
23728;SDS011;12045;60.214;24.724;2022-11-20T08:23:30;2.87;;;1.43;;
23728;SDS011;12045;60.214;24.724;2022-11-20T08:25:57;3.60;;;1.67;;
23728;SDS011;12045;60.214;24.724;2022-11-20T08:28:25;3.23;;;1.90;;
23728;SDS011;12045;60.214;24.724;2022-11-20T08:30:57;3.93;;;1.83;;
23728;SDS011;12045;60.214;24.724;2022-11-20T08:33:28;2.20;;;1.50;;
23728;SDS011;12045;60.214;24.724;2022-11-20T08:36:00;3.37;;;1.80;;
23728;SDS011;12045;60.214;24.724;2022-11-20T08:38:28;4.53;;;1.67;;
23728;SDS011;12045;60.214;24.724;2022-11-20T08:40:57;4.90;;;1.90;;
23728;SDS011;12045;60.214;24.724;2022-11-20T08:43:47;5.90;;;2.27;;
23728;SDS011;12045;60.214;24.724;2022-11-20T08:46:14;3.10;;;1.70;;
23728;SDS011;12045;60.214;24.724;2022-11-20T08:48:42;13.80;;;2.60;;
23728;SDS011;12045;60.214;24.724;2022-11-20T08:51:11;6.30;;;2.40;;
23728;SDS011;12045;60.214;24.724;2022-11-20T08:53:39;5.93;;;2.23;;
23728;SDS011;12045;60.214;24.724;2022-11-20T08:56:07;6.07;;;2.23;;
23728;SDS011;12045;60.214;24.724;2022-11-20T08:58:36;3.97;;;2.17;;
23728;SDS011;12045;60.214;24.724;2022-11-20T09:01:25;1.63;;;1.33;;
23728;SDS011;12045;60.214;24.724;2022-11-20T09:03:54;5.40;;;1.63;;
23728;SDS011;12045;60.214;24.724;2022-11-20T09:06:23;3.53;;;1.93;;
23728;SDS011;12045;60.214;24.724;2022-11-20T09:08:51;1.83;;;1.57;;
23728;SDS011;12045;60.214;24.724;2022-11-20T09:11:22;5.57;;;1.80;;
23728;SDS011;12045;60.214;24.724;2022-11-20T09:13:50;2.57;;;1.53;;
23728;SDS011;12045;60.214;24.724;2022-11-20T09:16:17;2.57;;;1.40;;
23728;SDS011;12045;60.214;24.724;2022-11-20T09:18:44;5.57;;;2.30;;
23728;SDS011;12045;60.214;24.724;2022-11-20T09:21:12;3.63;;;1.80;;
23728;SDS011;12045;60.214;24.724;2022-11-20T09:23:40;3.50;;;1.73;;
23728;SDS011;12045;60.214;24.724;2022-11-20T09:26:11;2.83;;;1.93;;
23728;SDS011;12045;60.214;24.724;2022-11-20T09:28:40;5.07;;;2.30;;
23728;SDS011;12045;60.214;24.724;2022-11-20T09:31:09;4.33;;;2.60;;
23728;SDS011;12045;60.214;24.724;2022-11-20T09:33:51;4.17;;;2.83;;
23728;SDS011;12045;60.214;24.724;2022-11-20T09:36:18;6.27;;;3.30;;
23728;SDS011;12045;60.214;24.724;2022-11-20T09:38:46;4.87;;;3.13;;
23728;SDS011;12045;60.214;24.724;2022-11-20T09:41:36;5.20;;;3.30;;
23728;SDS011;12045;60.214;24.724;2022-11-20T09:47:09;4.33;;;3.10;;
23728;SDS011;12045;60.214;24.724;2022-11-20T09:52:56;5.60;;;3.20;;
23728;SDS011;12045;60.214;24.724;2022-11-20T09:55:32;4.10;;;2.57;;
23728;SDS011;12045;60.214;24.724;2022-11-20T09:58:02;4.93;;;3.40;;
23728;SDS011;12045;60.214;24.724;2022-11-20T10:00:35;4.77;;;3.37;;
23728;SDS011;12045;60.214;24.724;2022-11-20T10:03:06;6.27;;;3.10;;
23728;SDS011;12045;60.214;24.724;2022-11-20T10:05:47;5.93;;;3.33;;
23728;SDS011;12045;60.214;24.724;2022-11-20T10:08:22;4.70;;;2.70;;
23728;SDS011;12045;60.214;24.724;2022-11-20T10:11:08;5.03;;;3.33;;
23728;SDS011;12045;60.214;24.724;2022-11-20T10:22:17;4.53;;;3.03;;
23728;SDS011;12045;60.214;24.724;2022-11-20T10:27:37;4.70;;;2.83;;
23728;SDS011;12045;60.214;24.724;2022-11-20T10:30:22;3.67;;;2.90;;
23728;SDS011;12045;60.214;24.724;2022-11-20T10:32:52;4.83;;;3.30;;
23728;SDS011;12045;60.214;24.724;2022-11-20T10:38:00;4.63;;;3.23;;
23728;SDS011;12045;60.214;24.724;2022-11-20T10:40:45;4.73;;;2.60;;
23728;SDS011;12045;60.214;24.724;2022-11-20T10:43:17;4.63;;;3.00;;
23728;SDS011;12045;60.214;24.724;2022-11-20T10:46:07;3.47;;;2.73;;
23728;SDS011;12045;60.214;24.724;2022-11-20T10:48:41;2.70;;;2.20;;
23728;SDS011;12045;60.214;24.724;2022-11-20T10:56:59;3.70;;;2.70;;
23728;SDS011;12045;60.214;24.724;2022-11-20T11:02:46;2.43;;;2.03;;
23728;SDS011;12045;60.214;24.724;2022-11-20T11:07:48;2.67;;;2.13;;
23728;SDS011;12045;60.214;24.724;2022-11-20T11:10:24;2.23;;;1.97;;
23728;SDS011;12045;60.214;24.724;2022-11-20T11:13:01;3.07;;;2.33;;
23728;SDS011;12045;60.214;24.724;2022-11-20T11:15:30;2.97;;;2.10;;
23728;SDS011;12045;60.214;24.724;2022-11-20T11:18:07;3.40;;;2.40;;
23728;SDS011;12045;60.214;24.724;2022-11-20T11:20:37;2.50;;;1.80;;
23728;SDS011;12045;60.214;24.724;2022-11-20T11:23:05;2.80;;;1.93;;
23728;SDS011;12045;60.214;24.724;2022-11-20T11:25:55;2.83;;;1.87;;
23728;SDS011;12045;60.214;24.724;2022-11-20T11:28:25;2.40;;;2.07;;
23728;SDS011;12045;60.214;24.724;2022-11-20T11:30:54;2.80;;;1.93;;
23728;SDS011;12045;60.214;24.724;2022-11-20T11:33:23;3.80;;;2.13;;
23728;SDS011;12045;60.214;24.724;2022-11-20T11:35:53;2.47;;;1.80;;
23728;SDS011;12045;60.214;24.724;2022-11-20T11:38:34;4.37;;;1.80;;
23728;SDS011;12045;60.214;24.724;2022-11-20T11:41:02;3.13;;;1.93;;
23728;SDS011;12045;60.214;24.724;2022-11-20T11:43:32;2.90;;;1.90;;
23728;SDS011;12045;60.214;24.724;2022-11-20T11:51:47;2.43;;;1.97;;
23728;SDS011;12045;60.214;24.724;2022-11-20T11:54:43;2.40;;;1.73;;
23728;SDS011;12045;60.214;24.724;2022-11-20T11:57:19;1.20;;;1.10;;
23728;SDS011;12045;60.214;24.724;2022-11-20T12:02:25;2.03;;;1.57;;
23728;SDS011;12045;60.214;24.724;2022-11-20T12:08:01;1.83;;;1.50;;
23728;SDS011;12045;60.214;24.724;2022-11-20T12:10:42;3.10;;;1.90;;
23728;SDS011;12045;60.214;24.724;2022-11-20T12:13:28;2.77;;;1.40;;
23728;SDS011;12045;60.214;24.724;2022-11-20T12:16:01;2.53;;;2.00;;
23728;SDS011;12045;60.214;24.724;2022-11-20T12:18:29;1.97;;;1.57;;
23728;SDS011;12045;60.214;24.724;2022-11-20T12:24:02;2.17;;;1.80;;
23728;SDS011;12045;60.214;24.724;2022-11-20T12:47:46;2.60;;;1.90;;
23728;SDS011;12045;60.214;24.724;2022-11-20T12:50:28;2.83;;;2.27;;
23728;SDS011;12045;60.214;24.724;2022-11-20T12:53:41;3.13;;;2.17;;
23728;SDS011;12045;60.214;24.724;2022-11-20T13:01:34;2.83;;;2.00;;
23728;SDS011;12045;60.214;24.724;2022-11-20T13:07:06;2.67;;;2.00;;
23728;SDS011;12045;60.214;24.724;2022-11-20T13:09:40;2.23;;;1.83;;
23728;SDS011;12045;60.214;24.724;2022-11-20T13:18:17;3.00;;;1.63;;
23728;SDS011;12045;60.214;24.724;2022-11-20T13:20:45;3.33;;;2.20;;
23728;SDS011;12045;60.214;24.724;2022-11-20T13:23:33;3.30;;;2.20;;
23728;SDS011;12045;60.214;24.724;2022-11-20T13:26:04;2.90;;;2.10;;
23728;SDS011;12045;60.214;24.724;2022-11-20T13:28:40;4.13;;;2.17;;
23728;SDS011;12045;60.214;24.724;2022-11-20T13:31:09;3.37;;;2.30;;
23728;SDS011;12045;60.214;24.724;2022-11-20T13:34:01;1.63;;;1.47;;
23728;SDS011;12045;60.214;24.724;2022-11-20T13:36:32;3.27;;;1.63;;
23728;SDS011;12045;60.214;24.724;2022-11-20T13:39:01;2.10;;;1.90;;
23728;SDS011;12045;60.214;24.724;2022-11-20T13:41:36;3.67;;;2.10;;
23728;SDS011;12045;60.214;24.724;2022-11-20T13:46:38;3.00;;;2.00;;
23728;SDS011;12045;60.214;24.724;2022-11-20T13:49:09;3.47;;;2.10;;
23728;SDS011;12045;60.214;24.724;2022-11-20T13:54:58;4.87;;;2.70;;
23728;SDS011;12045;60.214;24.724;2022-11-20T14:00:32;3.83;;;2.63;;
23728;SDS011;12045;60.214;24.724;2022-11-20T14:03:09;4.23;;;2.57;;
23728;SDS011;12045;60.214;24.724;2022-11-20T14:06:25;3.70;;;2.47;;
23728;SDS011;12045;60.214;24.724;2022-11-20T14:08:58;2.87;;;2.23;;
23728;SDS011;12045;60.214;24.724;2022-11-20T14:11:29;3.60;;;2.53;;
23728;SDS011;12045;60.214;24.724;2022-11-20T14:13:58;2.90;;;2.30;;
23728;SDS011;12045;60.214;24.724;2022-11-20T14:16:33;4.57;;;2.20;;
23728;SDS011;12045;60.214;24.724;2022-11-20T14:21:49;4.23;;;2.57;;
23728;SDS011;12045;60.214;24.724;2022-11-20T14:24:37;3.90;;;2.73;;
23728;SDS011;12045;60.214;24.724;2022-11-20T14:27:10;3.07;;;2.40;;
23728;SDS011;12045;60.214;24.724;2022-11-20T14:29:48;3.83;;;2.30;;
23728;SDS011;12045;60.214;24.724;2022-11-20T14:32:17;3.67;;;2.20;;
23728;SDS011;12045;60.214;24.724;2022-11-20T14:34:47;4.03;;;2.50;;
23728;SDS011;12045;60.214;24.724;2022-11-20T14:37:20;2.87;;;2.20;;
23728;SDS011;12045;60.214;24.724;2022-11-20T14:39:52;2.90;;;1.80;;
23728;SDS011;12045;60.214;24.724;2022-11-20T14:42:26;3.10;;;2.00;;
23728;SDS011;12045;60.214;24.724;2022-11-20T14:44:56;2.30;;;1.73;;
23728;SDS011;12045;60.214;24.724;2022-11-20T14:47:25;3.93;;;1.87;;
23728;SDS011;12045;60.214;24.724;2022-11-20T14:49:56;3.20;;;2.00;;
23728;SDS011;12045;60.214;24.724;2022-11-20T14:52:26;3.33;;;2.20;;
23728;SDS011;12045;60.214;24.724;2022-11-20T14:54:55;2.90;;;1.83;;
23728;SDS011;12045;60.214;24.724;2022-11-20T15:02:40;2.47;;;1.90;;
23728;SDS011;12045;60.214;24.724;2022-11-20T15:05:09;3.60;;;1.90;;
23728;SDS011;12045;60.214;24.724;2022-11-20T15:07:38;2.20;;;2.00;;
23728;SDS011;12045;60.214;24.724;2022-11-20T15:10:11;2.30;;;1.57;;
23728;SDS011;12045;60.214;24.724;2022-11-20T15:12:49;3.73;;;1.93;;
23728;SDS011;12045;60.214;24.724;2022-11-20T15:15:21;3.87;;;2.20;;
23728;SDS011;12045;60.214;24.724;2022-11-20T15:17:48;2.40;;;2.00;;
23728;SDS011;12045;60.214;24.724;2022-11-20T15:20:16;4.57;;;2.27;;
23728;SDS011;12045;60.214;24.724;2022-11-20T15:22:44;3.40;;;1.67;;
23728;SDS011;12045;60.214;24.724;2022-11-20T15:25:16;3.00;;;2.03;;
23728;SDS011;12045;60.214;24.724;2022-11-20T15:27:44;3.43;;;2.20;;
23728;SDS011;12045;60.214;24.724;2022-11-20T15:30:16;2.73;;;1.70;;
23728;SDS011;12045;60.214;24.724;2022-11-20T15:32:45;3.00;;;2.03;;
23728;SDS011;12045;60.214;24.724;2022-11-20T15:35:14;4.07;;;2.10;;
23728;SDS011;12045;60.214;24.724;2022-11-20T15:37:42;2.40;;;1.90;;
23728;SDS011;12045;60.214;24.724;2022-11-20T15:40:11;3.43;;;2.20;;
23728;SDS011;12045;60.214;24.724;2022-11-20T15:42:39;3.77;;;2.73;;
23728;SDS011;12045;60.214;24.724;2022-11-20T15:45:26;3.70;;;2.50;;
23728;SDS011;12045;60.214;24.724;2022-11-20T15:47:57;5.50;;;2.97;;
23728;SDS011;12045;60.214;24.724;2022-11-20T15:50:27;4.97;;;3.10;;
23728;SDS011;12045;60.214;24.724;2022-11-20T15:53:01;4.87;;;2.53;;
23728;SDS011;12045;60.214;24.724;2022-11-20T15:55:28;5.57;;;3.10;;
23728;SDS011;12045;60.214;24.724;2022-11-20T15:57:57;4.70;;;3.17;;
23728;SDS011;12045;60.214;24.724;2022-11-20T16:00:25;6.40;;;3.43;;
23728;SDS011;12045;60.214;24.724;2022-11-20T16:02:53;7.20;;;3.80;;
23728;SDS011;12045;60.214;24.724;2022-11-20T16:05:20;5.23;;;3.60;;
23728;SDS011;12045;60.214;24.724;2022-11-20T16:07:50;4.60;;;3.13;;
23728;SDS011;12045;60.214;24.724;2022-11-20T16:10:18;5.87;;;3.50;;
23728;SDS011;12045;60.214;24.724;2022-11-20T16:12:45;4.87;;;3.37;;
23728;SDS011;12045;60.214;24.724;2022-11-20T16:15:31;6.53;;;3.23;;
23728;SDS011;12045;60.214;24.724;2022-11-20T16:18:12;4.27;;;3.50;;
23728;SDS011;12045;60.214;24.724;2022-11-20T16:20:42;4.37;;;3.10;;
23728;SDS011;12045;60.214;24.724;2022-11-20T16:23:10;4.67;;;3.07;;
23728;SDS011;12045;60.214;24.724;2022-11-20T16:25:38;6.00;;;3.23;;
23728;SDS011;12045;60.214;24.724;2022-11-20T16:28:05;3.60;;;2.30;;
23728;SDS011;12045;60.214;24.724;2022-11-20T16:30:33;5.43;;;3.10;;
23728;SDS011;12045;60.214;24.724;2022-11-20T16:33:01;4.50;;;3.37;;
23728;SDS011;12045;60.214;24.724;2022-11-20T16:35:30;4.67;;;3.10;;
23728;SDS011;12045;60.214;24.724;2022-11-20T16:37:58;5.40;;;3.60;;
23728;SDS011;12045;60.214;24.724;2022-11-20T16:40:26;5.80;;;3.60;;
23728;SDS011;12045;60.214;24.724;2022-11-20T16:42:53;5.67;;;3.33;;